BWR100 VTBS-VRMM
Flight info
| Callsign | BWR100 |
|---|---|
| Flight time | 3h 54m |
| Altitude | 36000 |
| Route | BONVO1E BONVO M502 LALIT P762 XOKRO/N0456F380 P762 KAT G465 ATSON ATSON1A |
| Aircraft | B737/M-SDE2E3FGHIRWXY/LB1 |
Departure
| Time | 2026-05-07 21:12 |
|---|---|
| Airport | Suvarnabhumi Airport (VTBS) |
Arrival
| Time | 2026-05-08 01:06 |
|---|---|
| Airport | Velana International Airport (VRMM) |
| Time | Latitude | Longitude | Altitude | Speed | Heading |
|---|---|---|---|---|---|
| 2026-05-07 20:58 | 13.69239 | 100.74428 | 12 ft | 0 kts | 14° |
| 2026-05-07 21:03 | 13.69228 | 100.74425 | 12 ft | 2 kts | 12° |
| 2026-05-07 21:03 | 13.69212 | 100.74421 | 12 ft | 2 kts | 12° |
| 2026-05-07 21:03 | 13.69196 | 100.74419 | 16 ft | 2 kts | 355° |
| 2026-05-07 21:03 | 13.69180 | 100.74421 | 13 ft | 2 kts | 344° |
| 2026-05-07 21:04 | 13.69166 | 100.74430 | 14 ft | 2 kts | 299° |
| 2026-05-07 21:04 | 13.69164 | 100.74434 | 12 ft | 0 kts | 289° |
| 2026-05-07 21:06 | 13.69164 | 100.74432 | 13 ft | 1 kts | 285° |
| 2026-05-07 21:06 | 13.69164 | 100.74398 | 14 ft | 8 kts | 268° |
| 2026-05-07 21:06 | 13.69172 | 100.74338 | 12 ft | 9 kts | 297° |
| 2026-05-07 21:06 | 13.69229 | 100.74317 | 12 ft | 9 kts | 358° |
| 2026-05-07 21:07 | 13.69292 | 100.74328 | 12 ft | 9 kts | 17° |
| 2026-05-07 21:07 | 13.69357 | 100.74347 | 12 ft | 10 kts | 17° |
| 2026-05-07 21:07 | 13.69402 | 100.74360 | 12 ft | 10 kts | 13° |
| 2026-05-07 21:07 | 13.69497 | 100.74384 | 14 ft | 11 kts | 13° |
| 2026-05-07 21:08 | 13.69574 | 100.74401 | 14 ft | 12 kts | 13° |
| 2026-05-07 21:08 | 13.69627 | 100.74415 | 12 ft | 12 kts | 21° |
| 2026-05-07 21:08 | 13.69705 | 100.74441 | 12 ft | 12 kts | 12° |
| 2026-05-07 21:08 | 13.69787 | 100.74459 | 12 ft | 12 kts | 13° |
| 2026-05-07 21:09 | 13.69862 | 100.74452 | 13 ft | 11 kts | 320° |
| 2026-05-07 21:09 | 13.69892 | 100.74378 | 12 ft | 11 kts | 284° |
| 2026-05-07 21:09 | 13.69911 | 100.74302 | 12 ft | 11 kts | 286° |
| 2026-05-07 21:09 | 13.69930 | 100.74227 | 14 ft | 11 kts | 284° |
| 2026-05-07 21:10 | 13.69948 | 100.74154 | 12 ft | 11 kts | 284° |
| 2026-05-07 21:10 | 13.69967 | 100.74080 | 12 ft | 11 kts | 286° |
| 2026-05-07 21:10 | 13.69985 | 100.74008 | 12 ft | 10 kts | 283° |
| 2026-05-07 21:10 | 13.70001 | 100.73937 | 14 ft | 10 kts | 281° |
| 2026-05-07 21:11 | 13.69990 | 100.73871 | 13 ft | 10 kts | 239° |
| 2026-05-07 21:11 | 13.69937 | 100.73827 | 12 ft | 11 kts | 203° |
| 2026-05-07 21:11 | 13.69779 | 100.73794 | 11 ft | 12 kts | 195° |
| 2026-05-07 21:12 | 13.69515 | 100.73720 | 12 ft | 79 kts | 195° |
| 2026-05-07 21:12 | 13.68740 | 100.73516 | 12 ft | 150 kts | 194° |
| 2026-05-07 21:12 | 13.67602 | 100.73219 | 433 ft | 176 kts | 193° |
| 2026-05-07 21:12 | 13.66388 | 100.72897 | 1331 ft | 181 kts | 193° |
| 2026-05-07 21:13 | 13.65210 | 100.72617 | 2305 ft | 180 kts | 193° |
| 2026-05-07 21:13 | 13.63876 | 100.72301 | 2664 ft | 213 kts | 193° |
| 2026-05-07 21:13 | 13.62332 | 100.71936 | 3023 ft | 237 kts | 193° |
| 2026-05-07 21:13 | 13.60674 | 100.71544 | 3571 ft | 256 kts | 193° |
| 2026-05-07 21:14 | 13.58881 | 100.71120 | 4285 ft | 268 kts | 193° |
| 2026-05-07 21:14 | 13.57058 | 100.70689 | 5168 ft | 274 kts | 192° |
| 2026-05-07 21:14 | 13.55241 | 100.70049 | 6035 ft | 280 kts | 211° |
| 2026-05-07 21:14 | 13.53882 | 100.68612 | 6878 ft | 285 kts | 241° |
| 2026-05-07 21:15 | 13.53336 | 100.66656 | 7712 ft | 289 kts | 268° |
| 2026-05-07 21:15 | 13.53576 | 100.64611 | 8527 ft | 294 kts | 283° |
| 2026-05-07 21:15 | 13.54100 | 100.62558 | 9345 ft | 299 kts | 285° |
| 2026-05-07 21:15 | 13.54687 | 100.60479 | 10102 ft | 305 kts | 292° |
| 2026-05-07 21:16 | 13.55859 | 100.58603 | 10505 ft | 323 kts | 316° |
| 2026-05-07 21:16 | 13.57809 | 100.57377 | 10674 ft | 345 kts | 344° |
| 2026-05-07 21:16 | 13.60253 | 100.57145 | 11027 ft | 359 kts | 3° |
| 2026-05-07 21:16 | 13.62765 | 100.57277 | 11626 ft | 366 kts | 4° |
| 2026-05-07 21:17 | 13.65329 | 100.57397 | 12357 ft | 369 kts | 3° |
| 2026-05-07 21:17 | 13.67882 | 100.57492 | 13061 ft | 372 kts | 2° |
| 2026-05-07 21:17 | 13.70506 | 100.57567 | 13722 ft | 377 kts | 2° |
| 2026-05-07 21:17 | 13.73122 | 100.57635 | 14297 ft | 381 kts | 2° |
| 2026-05-07 21:18 | 13.75795 | 100.57698 | 14901 ft | 384 kts | 0° |
| 2026-05-07 21:18 | 13.78455 | 100.57274 | 15437 ft | 391 kts | 341° |
| 2026-05-07 21:18 | 13.80889 | 100.55998 | 16044 ft | 394 kts | 329° |
| 2026-05-07 21:18 | 13.83209 | 100.54500 | 16596 ft | 398 kts | 328° |
| 2026-05-07 21:19 | 13.85537 | 100.52969 | 17122 ft | 403 kts | 328° |
| 2026-05-07 21:19 | 13.87946 | 100.51417 | 17650 ft | 407 kts | 329° |
| 2026-05-07 21:19 | 13.90380 | 100.49878 | 18146 ft | 411 kts | 329° |
| 2026-05-07 21:19 | 13.92627 | 100.48084 | 18519 ft | 418 kts | 312° |
| 2026-05-07 21:20 | 13.94232 | 100.45581 | 19002 ft | 419 kts | 294° |
| 2026-05-07 21:20 | 13.95027 | 100.42718 | 19487 ft | 420 kts | 278° |
| 2026-05-07 21:20 | 13.95445 | 100.39713 | 19938 ft | 423 kts | 277° |
| 2026-05-07 21:20 | 13.95810 | 100.36723 | 20317 ft | 427 kts | 276° |
| 2026-05-07 21:21 | 13.96189 | 100.33676 | 20718 ft | 430 kts | 277° |
| 2026-05-07 21:21 | 13.96599 | 100.30601 | 21142 ft | 433 kts | 277° |
| 2026-05-07 21:21 | 13.97031 | 100.27503 | 21557 ft | 436 kts | 278° |
| 2026-05-07 21:21 | 13.97466 | 100.24433 | 21945 ft | 438 kts | 277° |
| 2026-05-07 21:22 | 13.97742 | 100.21278 | 22326 ft | 441 kts | 272° |
| 2026-05-07 21:22 | 13.97821 | 100.18136 | 22703 ft | 444 kts | 270° |
| 2026-05-07 21:22 | 13.97871 | 100.14938 | 23075 ft | 446 kts | 270° |
| 2026-05-07 21:22 | 13.97957 | 100.11746 | 23422 ft | 449 kts | 271° |
| 2026-05-07 21:23 | 13.97886 | 100.08504 | 23695 ft | 451 kts | 259° |
| 2026-05-07 21:23 | 13.96967 | 100.05454 | 23982 ft | 450 kts | 243° |
| 2026-05-07 21:23 | 13.95248 | 100.02768 | 24321 ft | 448 kts | 229° |
| 2026-05-07 21:23 | 13.93243 | 100.00350 | 24635 ft | 449 kts | 227° |
| 2026-05-07 21:24 | 13.91151 | 99.97910 | 24881 ft | 452 kts | 227° |
| 2026-05-07 21:24 | 13.89057 | 99.95468 | 25131 ft | 455 kts | 227° |
| 2026-05-07 21:24 | 13.86992 | 99.93029 | 25444 ft | 456 kts | 228° |
| 2026-05-07 21:24 | 13.84905 | 99.90536 | 25741 ft | 457 kts | 228° |
| 2026-05-07 21:25 | 13.82836 | 99.88044 | 25986 ft | 460 kts | 229° |
| 2026-05-07 21:25 | 13.80776 | 99.85556 | 26226 ft | 462 kts | 229° |
| 2026-05-07 21:25 | 13.78685 | 99.83030 | 26535 ft | 463 kts | 229° |
| 2026-05-07 21:25 | 13.76584 | 99.80496 | 26836 ft | 463 kts | 229° |
| 2026-05-07 21:26 | 13.74560 | 99.77936 | 27035 ft | 467 kts | 236° |
| 2026-05-07 21:26 | 13.73138 | 99.74925 | 27233 ft | 471 kts | 253° |
| 2026-05-07 21:26 | 13.72416 | 99.71631 | 27561 ft | 470 kts | 259° |
| 2026-05-07 21:26 | 13.71813 | 99.68305 | 27812 ft | 472 kts | 259° |
| 2026-05-07 21:27 | 13.71231 | 99.64992 | 27989 ft | 475 kts | 259° |
| 2026-05-07 21:27 | 13.70632 | 99.61626 | 28199 ft | 477 kts | 259° |
| 2026-05-07 21:27 | 13.70020 | 99.58294 | 28431 ft | 478 kts | 259° |
| 2026-05-07 21:27 | 13.69385 | 99.54916 | 28654 ft | 480 kts | 259° |
| 2026-05-07 21:28 | 13.68738 | 99.51535 | 28867 ft | 482 kts | 259° |
| 2026-05-07 21:28 | 13.68091 | 99.48180 | 29063 ft | 483 kts | 259° |
| 2026-05-07 21:28 | 13.67433 | 99.44778 | 29265 ft | 485 kts | 259° |
| 2026-05-07 21:28 | 13.66770 | 99.41352 | 29454 ft | 486 kts | 259° |
| 2026-05-07 21:29 | 13.66110 | 99.37938 | 29638 ft | 488 kts | 259° |
| 2026-05-07 21:29 | 13.65454 | 99.34540 | 29823 ft | 489 kts | 259° |
| 2026-05-07 21:29 | 13.64787 | 99.31088 | 30001 ft | 491 kts | 259° |
| 2026-05-07 21:29 | 13.64118 | 99.27626 | 30157 ft | 491 kts | 259° |
| 2026-05-07 21:30 | 13.63457 | 99.24208 | 30371 ft | 491 kts | 259° |
| 2026-05-07 21:30 | 13.62791 | 99.20765 | 30636 ft | 490 kts | 259° |
| 2026-05-07 21:30 | 13.62131 | 99.17362 | 30911 ft | 488 kts | 259° |
| 2026-05-07 21:30 | 13.61462 | 99.13922 | 31159 ft | 488 kts | 259° |
| 2026-05-07 21:31 | 13.60791 | 99.10479 | 31387 ft | 488 kts | 259° |
| 2026-05-07 21:31 | 13.60127 | 99.07074 | 31639 ft | 487 kts | 259° |
| 2026-05-07 21:31 | 13.59467 | 99.03696 | 31907 ft | 486 kts | 259° |
| 2026-05-07 21:31 | 13.58801 | 99.00291 | 32199 ft | 485 kts | 259° |
| 2026-05-07 21:32 | 13.58137 | 98.96890 | 32470 ft | 484 kts | 259° |
| 2026-05-07 21:32 | 13.57469 | 98.93475 | 32747 ft | 484 kts | 259° |
| 2026-05-07 21:32 | 13.56804 | 98.90080 | 33057 ft | 482 kts | 259° |
| 2026-05-07 21:32 | 13.56147 | 98.86724 | 33396 ft | 480 kts | 259° |
| 2026-05-07 21:33 | 13.55496 | 98.83401 | 33719 ft | 479 kts | 259° |
| 2026-05-07 21:33 | 13.54836 | 98.80036 | 33995 ft | 478 kts | 259° |
| 2026-05-07 21:33 | 13.54175 | 98.76668 | 34245 ft | 478 kts | 259° |
| 2026-05-07 21:33 | 13.53521 | 98.73338 | 34492 ft | 477 kts | 259° |
| 2026-05-07 21:34 | 13.52860 | 98.69975 | 34779 ft | 477 kts | 259° |
| 2026-05-07 21:34 | 13.52211 | 98.66674 | 35068 ft | 475 kts | 259° |
| 2026-05-07 21:34 | 13.51557 | 98.63351 | 35351 ft | 474 kts | 259° |
| 2026-05-07 21:34 | 13.50900 | 98.60012 | 35608 ft | 473 kts | 259° |
| 2026-05-07 21:35 | 13.50254 | 98.56732 | 35849 ft | 473 kts | 259° |
| 2026-05-07 21:35 | 13.49597 | 98.53398 | 35835 ft | 476 kts | 259° |
| 2026-05-07 21:35 | 13.48282 | 98.46760 | 35843 ft | 473 kts | 259° |
| 2026-05-07 21:36 | 13.46968 | 98.40144 | 35852 ft | 470 kts | 259° |
| 2026-05-07 21:36 | 13.45670 | 98.33612 | 35846 ft | 467 kts | 259° |
| 2026-05-07 21:37 | 13.44375 | 98.27099 | 35841 ft | 466 kts | 259° |
| 2026-05-07 21:37 | 13.43070 | 98.20548 | 35840 ft | 465 kts | 259° |
| 2026-05-07 21:38 | 13.41777 | 98.14053 | 35840 ft | 466 kts | 259° |
| 2026-05-07 21:38 | 13.40480 | 98.07540 | 35840 ft | 467 kts | 258° |
| 2026-05-07 21:39 | 13.39174 | 98.00985 | 35843 ft | 469 kts | 258° |
| 2026-05-07 21:39 | 13.37865 | 97.94425 | 35838 ft | 471 kts | 258° |
| 2026-05-07 21:40 | 13.36548 | 97.87835 | 35836 ft | 473 kts | 258° |
| 2026-05-07 21:40 | 13.35221 | 97.81207 | 35836 ft | 474 kts | 258° |
| 2026-05-07 21:41 | 13.33892 | 97.74579 | 35835 ft | 475 kts | 258° |
| 2026-05-07 21:41 | 13.32552 | 97.67902 | 35829 ft | 475 kts | 258° |
| 2026-05-07 21:42 | 13.31219 | 97.61272 | 35835 ft | 475 kts | 258° |
| 2026-05-07 21:42 | 13.29885 | 97.54642 | 35838 ft | 475 kts | 258° |
| 2026-05-07 21:43 | 13.28551 | 97.48024 | 35831 ft | 474 kts | 258° |
| 2026-05-07 21:43 | 13.27217 | 97.41419 | 35835 ft | 474 kts | 258° |
| 2026-05-07 21:44 | 13.25873 | 97.34767 | 35836 ft | 473 kts | 258° |
| 2026-05-07 21:44 | 13.24534 | 97.28155 | 35834 ft | 473 kts | 258° |
| 2026-05-07 21:45 | 13.23197 | 97.21556 | 35838 ft | 473 kts | 258° |
| 2026-05-07 21:45 | 13.21858 | 97.14959 | 35843 ft | 473 kts | 258° |
| 2026-05-07 21:46 | 13.20511 | 97.08334 | 35841 ft | 473 kts | 258° |
| 2026-05-07 21:46 | 13.19170 | 97.01744 | 35834 ft | 473 kts | 258° |
| 2026-05-07 21:47 | 13.17825 | 96.95145 | 35840 ft | 473 kts | 258° |
| 2026-05-07 21:47 | 13.16477 | 96.88542 | 35837 ft | 472 kts | 258° |
| 2026-05-07 21:48 | 13.15136 | 96.81982 | 35833 ft | 472 kts | 258° |
| 2026-05-07 21:48 | 13.13783 | 96.75367 | 35838 ft | 472 kts | 258° |
| 2026-05-07 21:49 | 13.12434 | 96.68783 | 35837 ft | 472 kts | 258° |
| 2026-05-07 21:49 | 13.11084 | 96.62207 | 35836 ft | 472 kts | 257° |
| 2026-05-07 21:50 | 13.09725 | 96.55592 | 35836 ft | 472 kts | 257° |
| 2026-05-07 21:50 | 13.08375 | 96.49031 | 35836 ft | 472 kts | 257° |
| 2026-05-07 21:51 | 13.07021 | 96.42459 | 35824 ft | 472 kts | 257° |
| 2026-05-07 21:51 | 13.05664 | 96.35881 | 35835 ft | 471 kts | 257° |
| 2026-05-07 21:52 | 13.04306 | 96.29307 | 35839 ft | 471 kts | 257° |
| 2026-05-07 21:52 | 13.02947 | 96.22737 | 35830 ft | 472 kts | 257° |
| 2026-05-07 21:53 | 13.01588 | 96.16175 | 35838 ft | 471 kts | 257° |
| 2026-05-07 21:53 | 13.00448 | 96.10678 | 35838 ft | 471 kts | 257° |
| 2026-05-07 21:54 | 12.99086 | 96.04121 | 35832 ft | 471 kts | 257° |
| 2026-05-07 21:54 | 12.97721 | 95.97553 | 35835 ft | 471 kts | 257° |
| 2026-05-07 21:55 | 12.96349 | 95.90961 | 35835 ft | 470 kts | 257° |
| 2026-05-07 21:55 | 12.94984 | 95.84412 | 35828 ft | 470 kts | 257° |
| 2026-05-07 21:56 | 12.93620 | 95.77880 | 35826 ft | 470 kts | 257° |
| 2026-05-07 21:56 | 12.92257 | 95.71358 | 35832 ft | 469 kts | 257° |
| 2026-05-07 21:57 | 12.90883 | 95.64790 | 35826 ft | 469 kts | 257° |
| 2026-05-07 21:57 | 12.89517 | 95.58269 | 35824 ft | 469 kts | 257° |
| 2026-05-07 21:58 | 12.88150 | 95.51749 | 35831 ft | 469 kts | 257° |
| 2026-05-07 21:58 | 12.86382 | 95.45349 | 35823 ft | 466 kts | 245° |
| 2026-05-07 21:59 | 12.83656 | 95.39286 | 35835 ft | 466 kts | 243° |
| 2026-05-07 21:59 | 12.80891 | 95.33304 | 35825 ft | 466 kts | 244° |
| 2026-05-07 22:00 | 12.78154 | 95.27285 | 35839 ft | 467 kts | 244° |
| 2026-05-07 22:00 | 12.75440 | 95.21245 | 35829 ft | 467 kts | 244° |
| 2026-05-07 22:01 | 12.72736 | 95.15213 | 35824 ft | 467 kts | 244° |
| 2026-05-07 22:01 | 12.70030 | 95.09180 | 35837 ft | 467 kts | 244° |
| 2026-05-07 22:02 | 12.67308 | 95.03123 | 35821 ft | 467 kts | 244° |
| 2026-05-07 22:02 | 12.64601 | 94.97104 | 35834 ft | 466 kts | 244° |
| 2026-05-07 22:03 | 12.61888 | 94.91074 | 35836 ft | 466 kts | 244° |
| 2026-05-07 22:03 | 12.59162 | 94.85022 | 35822 ft | 466 kts | 244° |
| 2026-05-07 22:04 | 12.56452 | 94.79008 | 35830 ft | 466 kts | 244° |
| 2026-05-07 22:04 | 12.53741 | 94.72996 | 35828 ft | 466 kts | 243° |
| 2026-05-07 22:05 | 12.51012 | 94.66949 | 35831 ft | 466 kts | 243° |
| 2026-05-07 22:05 | 12.48305 | 94.60954 | 35832 ft | 466 kts | 243° |
| 2026-05-07 22:06 | 12.45594 | 94.54954 | 35827 ft | 465 kts | 243° |
| 2026-05-07 22:06 | 12.42879 | 94.48949 | 35827 ft | 465 kts | 243° |
| 2026-05-07 22:07 | 12.40149 | 94.42915 | 35830 ft | 465 kts | 243° |
| 2026-05-07 22:07 | 12.37448 | 94.36934 | 35831 ft | 465 kts | 244° |
| 2026-05-07 22:08 | 12.34726 | 94.30883 | 35825 ft | 466 kts | 244° |
| 2026-05-07 22:08 | 12.32024 | 94.24880 | 35823 ft | 466 kts | 244° |
| 2026-05-07 22:09 | 12.29320 | 94.18882 | 35832 ft | 466 kts | 244° |
| 2026-05-07 22:09 | 12.26589 | 94.12827 | 35832 ft | 467 kts | 244° |
| 2026-05-07 22:10 | 12.23878 | 94.06819 | 35826 ft | 467 kts | 244° |
| 2026-05-07 22:10 | 12.21159 | 94.00784 | 35830 ft | 468 kts | 244° |
| 2026-05-07 22:11 | 12.18474 | 93.94734 | 35820 ft | 468 kts | 244° |
| 2026-05-07 22:11 | 12.15789 | 93.88663 | 35829 ft | 469 kts | 244° |
| 2026-05-07 22:12 | 12.13091 | 93.82575 | 35826 ft | 469 kts | 244° |
| 2026-05-07 22:12 | 12.10397 | 93.76510 | 35821 ft | 470 kts | 244° |
| 2026-05-07 22:13 | 12.07700 | 93.70444 | 35824 ft | 470 kts | 244° |
| 2026-05-07 22:13 | 12.04992 | 93.64355 | 35831 ft | 471 kts | 244° |
| 2026-05-07 22:14 | 12.02290 | 93.58287 | 35822 ft | 471 kts | 244° |
| 2026-05-07 22:14 | 11.99579 | 93.52200 | 35826 ft | 471 kts | 244° |
| 2026-05-07 22:15 | 11.96850 | 93.46079 | 35824 ft | 472 kts | 244° |
| 2026-05-07 22:15 | 11.94133 | 93.39986 | 35826 ft | 472 kts | 244° |
| 2026-05-07 22:16 | 11.91416 | 93.33899 | 35827 ft | 472 kts | 244° |
| 2026-05-07 22:16 | 11.88694 | 93.27805 | 35822 ft | 472 kts | 244° |
| 2026-05-07 22:17 | 11.85968 | 93.21706 | 35822 ft | 472 kts | 244° |
| 2026-05-07 22:17 | 11.83245 | 93.15619 | 35823 ft | 472 kts | 244° |
| 2026-05-07 22:18 | 11.79157 | 93.06486 | 35825 ft | 472 kts | 244° |
| 2026-05-07 22:19 | 11.76425 | 93.00388 | 35829 ft | 472 kts | 244° |
| 2026-05-07 22:19 | 11.73703 | 92.94315 | 35832 ft | 471 kts | 244° |
| 2026-05-07 22:20 | 11.70975 | 92.88233 | 35828 ft | 471 kts | 244° |
| 2026-05-07 22:20 | 11.68248 | 92.82156 | 35832 ft | 471 kts | 244° |
| 2026-05-07 22:21 | 11.65508 | 92.76056 | 35823 ft | 471 kts | 244° |
| 2026-05-07 22:21 | 11.63279 | 92.69792 | 35827 ft | 471 kts | 252° |
| 2026-05-07 22:22 | 11.61376 | 92.63420 | 35827 ft | 471 kts | 252° |
| 2026-05-07 22:22 | 11.59465 | 92.57035 | 35820 ft | 472 kts | 252° |
| 2026-05-07 22:23 | 11.57508 | 92.50620 | 35829 ft | 472 kts | 252° |
| 2026-05-07 22:23 | 11.55549 | 92.44253 | 35828 ft | 472 kts | 252° |
| 2026-05-07 22:24 | 11.53576 | 92.37851 | 35821 ft | 472 kts | 251° |
| 2026-05-07 22:24 | 11.51617 | 92.31497 | 35824 ft | 472 kts | 252° |
| 2026-05-07 22:25 | 11.49640 | 92.25084 | 35824 ft | 473 kts | 251° |
| 2026-05-07 22:25 | 11.47665 | 92.18686 | 35827 ft | 473 kts | 251° |
| 2026-05-07 22:26 | 11.45696 | 92.12311 | 35821 ft | 473 kts | 251° |
| 2026-05-07 22:26 | 11.43711 | 92.05890 | 35826 ft | 473 kts | 251° |
| 2026-05-07 22:27 | 11.41729 | 91.99482 | 35826 ft | 473 kts | 251° |
| 2026-05-07 22:27 | 11.39759 | 91.93121 | 35828 ft | 474 kts | 251° |
| 2026-05-07 22:28 | 11.37778 | 91.86724 | 35824 ft | 473 kts | 251° |
| 2026-05-07 22:28 | 11.35786 | 91.80301 | 35824 ft | 473 kts | 251° |
| 2026-05-07 22:29 | 11.33716 | 91.73949 | 35821 ft | 473 kts | 250° |
| 2026-05-07 22:29 | 11.31561 | 91.67638 | 35821 ft | 473 kts | 250° |
| 2026-05-07 22:30 | 11.29390 | 91.61279 | 35828 ft | 473 kts | 250° |
| 2026-05-07 22:30 | 11.27248 | 91.54961 | 35826 ft | 473 kts | 250° |
| 2026-05-07 22:31 | 11.25109 | 91.48633 | 35821 ft | 473 kts | 250° |
| 2026-05-07 22:31 | 11.22975 | 91.42323 | 35826 ft | 473 kts | 250° |
| 2026-05-07 22:32 | 11.20826 | 91.35971 | 35828 ft | 473 kts | 250° |
| 2026-05-07 22:32 | 11.18683 | 91.29647 | 35829 ft | 473 kts | 250° |
| 2026-05-07 22:33 | 11.16543 | 91.23335 | 35825 ft | 473 kts | 250° |
| 2026-05-07 22:33 | 11.14397 | 91.17010 | 35823 ft | 473 kts | 250° |
| 2026-05-07 22:34 | 11.12246 | 91.10675 | 35831 ft | 473 kts | 250° |
| 2026-05-07 22:34 | 11.10085 | 91.04317 | 35831 ft | 474 kts | 250° |
| 2026-05-07 22:35 | 11.07925 | 90.97967 | 35832 ft | 474 kts | 250° |
| 2026-05-07 22:35 | 11.05771 | 90.91638 | 35824 ft | 474 kts | 250° |
| 2026-05-07 22:36 | 11.03613 | 90.85303 | 35827 ft | 474 kts | 250° |
| 2026-05-07 22:36 | 11.01816 | 90.80030 | 35827 ft | 474 kts | 250° |
| 2026-05-07 22:37 | 10.99655 | 90.73694 | 35827 ft | 474 kts | 250° |
| 2026-05-07 22:37 | 10.97480 | 90.67323 | 35824 ft | 474 kts | 250° |
| 2026-05-07 22:38 | 10.95315 | 90.60984 | 35829 ft | 474 kts | 250° |
| 2026-05-07 22:38 | 10.93146 | 90.54640 | 35816 ft | 474 kts | 250° |
| 2026-05-07 22:39 | 10.90990 | 90.48337 | 35819 ft | 474 kts | 250° |
| 2026-05-07 22:39 | 10.88813 | 90.41978 | 35822 ft | 474 kts | 250° |
| 2026-05-07 22:40 | 10.86650 | 90.35665 | 35821 ft | 474 kts | 250° |
| 2026-05-07 22:40 | 10.84481 | 90.29340 | 35817 ft | 474 kts | 250° |
| 2026-05-07 22:41 | 10.82299 | 90.22979 | 35819 ft | 474 kts | 250° |
| 2026-05-07 22:41 | 10.80129 | 90.16658 | 35819 ft | 474 kts | 250° |
| 2026-05-07 22:42 | 10.77964 | 90.10358 | 35821 ft | 473 kts | 250° |
| 2026-05-07 22:42 | 10.75781 | 90.04009 | 35821 ft | 473 kts | 250° |
| 2026-05-07 22:43 | 10.73606 | 89.97721 | 35801 ft | 473 kts | 250° |
| 2026-05-07 22:43 | 10.71327 | 89.91438 | 35821 ft | 472 kts | 249° |
| 2026-05-07 22:44 | 10.69026 | 89.85174 | 35817 ft | 472 kts | 249° |
| 2026-05-07 22:44 | 10.66743 | 89.78936 | 35813 ft | 473 kts | 249° |
| 2026-05-07 22:45 | 10.64456 | 89.72665 | 35815 ft | 473 kts | 249° |
| 2026-05-07 22:45 | 10.62175 | 89.66406 | 35814 ft | 473 kts | 249° |
| 2026-05-07 22:46 | 10.59877 | 89.60107 | 35813 ft | 473 kts | 249° |
| 2026-05-07 22:46 | 10.57587 | 89.53833 | 35810 ft | 474 kts | 249° |
| 2026-05-07 22:47 | 10.55293 | 89.47553 | 35814 ft | 474 kts | 249° |
| 2026-05-07 22:47 | 10.53003 | 89.41289 | 35816 ft | 474 kts | 249° |
| 2026-05-07 22:48 | 10.50711 | 89.35024 | 35814 ft | 474 kts | 249° |
| 2026-05-07 22:48 | 10.48411 | 89.28742 | 35815 ft | 474 kts | 249° |
| 2026-05-07 22:49 | 10.46101 | 89.22436 | 35818 ft | 474 kts | 249° |
| 2026-05-07 22:49 | 10.43800 | 89.16160 | 35814 ft | 474 kts | 249° |
| 2026-05-07 22:50 | 10.41496 | 89.09879 | 35819 ft | 474 kts | 249° |
| 2026-05-07 22:50 | 10.39197 | 89.03617 | 35813 ft | 474 kts | 249° |
| 2026-05-07 22:51 | 10.36890 | 88.97336 | 35814 ft | 474 kts | 249° |
| 2026-05-07 22:51 | 10.34591 | 88.91081 | 35805 ft | 474 kts | 249° |
| 2026-05-07 22:52 | 10.32288 | 88.84819 | 35809 ft | 473 kts | 249° |
| 2026-05-07 22:52 | 10.29979 | 88.78547 | 35811 ft | 473 kts | 249° |
| 2026-05-07 22:53 | 10.27682 | 88.72309 | 35810 ft | 472 kts | 249° |
| 2026-05-07 22:53 | 10.25385 | 88.66075 | 35818 ft | 472 kts | 249° |
| 2026-05-07 22:54 | 10.23081 | 88.59827 | 35814 ft | 472 kts | 249° |
| 2026-05-07 22:54 | 10.20784 | 88.53602 | 35814 ft | 472 kts | 249° |
| 2026-05-07 22:55 | 10.18470 | 88.47339 | 35811 ft | 472 kts | 249° |
| 2026-05-07 22:55 | 10.16159 | 88.41089 | 35809 ft | 472 kts | 249° |
| 2026-05-07 22:56 | 10.13855 | 88.34862 | 35809 ft | 473 kts | 249° |
| 2026-05-07 22:56 | 10.11547 | 88.28625 | 35817 ft | 473 kts | 249° |
| 2026-05-07 22:57 | 10.09222 | 88.22346 | 35813 ft | 474 kts | 249° |
| 2026-05-07 22:57 | 10.06901 | 88.16083 | 35816 ft | 475 kts | 249° |
| 2026-05-07 22:58 | 10.04587 | 88.09842 | 35812 ft | 475 kts | 249° |
| 2026-05-07 22:58 | 10.02249 | 88.03539 | 35818 ft | 475 kts | 248° |
| 2026-05-07 22:59 | 9.99918 | 87.97261 | 35810 ft | 475 kts | 248° |
| 2026-05-07 22:59 | 9.97589 | 87.90990 | 35816 ft | 475 kts | 248° |
| 2026-05-07 23:00 | 9.95257 | 87.84717 | 35817 ft | 475 kts | 248° |
| 2026-05-07 23:00 | 9.92928 | 87.78457 | 35817 ft | 475 kts | 248° |
| 2026-05-07 23:01 | 9.90601 | 87.72205 | 35820 ft | 474 kts | 248° |
| 2026-05-07 23:01 | 9.88271 | 87.65950 | 35815 ft | 474 kts | 248° |
| 2026-05-07 23:02 | 9.85928 | 87.59662 | 35815 ft | 474 kts | 248° |
| 2026-05-07 23:02 | 9.83601 | 87.53422 | 35812 ft | 473 kts | 248° |
| 2026-05-07 23:03 | 9.81272 | 87.47180 | 35821 ft | 473 kts | 248° |
| 2026-05-07 23:03 | 9.78950 | 87.40959 | 35823 ft | 473 kts | 248° |
| 2026-05-07 23:04 | 9.76616 | 87.34706 | 35811 ft | 473 kts | 249° |
| 2026-05-07 23:04 | 9.74407 | 87.28453 | 35813 ft | 473 kts | 250° |
| 2026-05-07 23:05 | 9.72249 | 87.22140 | 35813 ft | 473 kts | 250° |
| 2026-05-07 23:05 | 9.70081 | 87.15822 | 35809 ft | 473 kts | 250° |
| 2026-05-07 23:06 | 9.67903 | 87.09526 | 35811 ft | 473 kts | 250° |
| 2026-05-07 23:06 | 9.65720 | 87.03237 | 35807 ft | 473 kts | 250° |
| 2026-05-07 23:07 | 9.63537 | 86.96954 | 35812 ft | 473 kts | 250° |
| 2026-05-07 23:07 | 9.61355 | 86.90677 | 35808 ft | 474 kts | 250° |
| 2026-05-07 23:08 | 9.59165 | 86.84378 | 35811 ft | 474 kts | 250° |
| 2026-05-07 23:08 | 9.56977 | 86.78089 | 35808 ft | 474 kts | 250° |
| 2026-05-07 23:09 | 9.54775 | 86.71765 | 35810 ft | 474 kts | 250° |
| 2026-05-07 23:09 | 9.52580 | 86.65465 | 35809 ft | 475 kts | 250° |
| 2026-05-07 23:10 | 9.50382 | 86.59161 | 35807 ft | 475 kts | 250° |
| 2026-05-07 23:10 | 9.48183 | 86.52856 | 35811 ft | 475 kts | 250° |
| 2026-05-07 23:11 | 9.45976 | 86.46533 | 35806 ft | 475 kts | 250° |
| 2026-05-07 23:11 | 9.43773 | 86.40226 | 35805 ft | 475 kts | 250° |
| 2026-05-07 23:12 | 9.41580 | 86.33953 | 35803 ft | 475 kts | 250° |
| 2026-05-07 23:12 | 9.39363 | 86.27612 | 35811 ft | 475 kts | 250° |
| 2026-05-07 23:13 | 9.37160 | 86.21317 | 35811 ft | 475 kts | 250° |
| 2026-05-07 23:13 | 9.34959 | 86.15032 | 35809 ft | 474 kts | 250° |
| 2026-05-07 23:14 | 9.32757 | 86.08745 | 35806 ft | 474 kts | 250° |
| 2026-05-07 23:14 | 9.30561 | 86.02481 | 35815 ft | 473 kts | 250° |
| 2026-05-07 23:15 | 9.28361 | 85.96209 | 35808 ft | 473 kts | 250° |
| 2026-05-07 23:15 | 9.26151 | 85.89912 | 35805 ft | 473 kts | 250° |
| 2026-05-07 23:16 | 9.23970 | 85.83650 | 35809 ft | 473 kts | 250° |
| 2026-05-07 23:16 | 9.21835 | 85.77362 | 35804 ft | 473 kts | 250° |
| 2026-05-07 23:17 | 9.19691 | 85.71029 | 35814 ft | 473 kts | 250° |
| 2026-05-07 23:17 | 9.17556 | 85.64748 | 35812 ft | 473 kts | 250° |
| 2026-05-07 23:18 | 9.15417 | 85.58470 | 35808 ft | 473 kts | 250° |
| 2026-05-07 23:18 | 9.13263 | 85.52153 | 35806 ft | 473 kts | 250° |
| 2026-05-07 23:19 | 9.11115 | 85.45857 | 35807 ft | 474 kts | 250° |
| 2026-05-07 23:19 | 9.08970 | 85.39575 | 35807 ft | 474 kts | 250° |
| 2026-05-07 23:20 | 9.06819 | 85.33279 | 35807 ft | 474 kts | 250° |
| 2026-05-07 23:20 | 9.04664 | 85.26972 | 35810 ft | 474 kts | 250° |
| 2026-05-07 23:21 | 9.02514 | 85.20688 | 35805 ft | 474 kts | 250° |
| 2026-05-07 23:21 | 9.00715 | 85.15431 | 35808 ft | 474 kts | 250° |
| 2026-05-07 23:22 | 8.98558 | 85.09132 | 35802 ft | 474 kts | 250° |
| 2026-05-07 23:22 | 8.96407 | 85.02853 | 35799 ft | 474 kts | 250° |
| 2026-05-07 23:23 | 8.94255 | 84.96576 | 35802 ft | 474 kts | 250° |
| 2026-05-07 23:23 | 8.92087 | 84.90253 | 35802 ft | 474 kts | 250° |
| 2026-05-07 23:24 | 8.89924 | 84.83950 | 35799 ft | 474 kts | 250° |
| 2026-05-07 23:24 | 8.87768 | 84.77663 | 35798 ft | 474 kts | 250° |
| 2026-05-07 23:25 | 8.85640 | 84.71379 | 35805 ft | 474 kts | 251° |
| 2026-05-07 23:25 | 8.83511 | 84.65076 | 35802 ft | 474 kts | 251° |
| 2026-05-07 23:26 | 8.81372 | 84.58747 | 35798 ft | 474 kts | 250° |
| 2026-05-07 23:26 | 8.79244 | 84.52466 | 35792 ft | 474 kts | 250° |
| 2026-05-07 23:27 | 8.76029 | 84.42985 | 35800 ft | 474 kts | 250° |
| 2026-05-07 23:27 | 8.73897 | 84.36701 | 35800 ft | 474 kts | 250° |
| 2026-05-07 23:28 | 8.71757 | 84.30399 | 35795 ft | 474 kts | 250° |
| 2026-05-07 23:28 | 8.69626 | 84.24126 | 35793 ft | 473 kts | 250° |
| 2026-05-07 23:29 | 8.67490 | 84.17842 | 35797 ft | 473 kts | 250° |
| 2026-05-07 23:29 | 8.65340 | 84.11521 | 35799 ft | 473 kts | 250° |
| 2026-05-07 23:30 | 8.63203 | 84.05242 | 35796 ft | 473 kts | 250° |
| 2026-05-07 23:30 | 8.61068 | 83.98975 | 35794 ft | 473 kts | 250° |
| 2026-05-07 23:31 | 8.58932 | 83.92705 | 35792 ft | 472 kts | 250° |
| 2026-05-07 23:31 | 8.56800 | 83.86451 | 35795 ft | 472 kts | 250° |
| 2026-05-07 23:32 | 8.54652 | 83.80155 | 35793 ft | 472 kts | 250° |
| 2026-05-07 23:32 | 8.52519 | 83.73906 | 35796 ft | 472 kts | 250° |
| 2026-05-07 23:33 | 8.50371 | 83.67616 | 35793 ft | 472 kts | 250° |
| 2026-05-07 23:33 | 8.48234 | 83.61362 | 35795 ft | 472 kts | 250° |
| 2026-05-07 23:34 | 8.46094 | 83.55106 | 35792 ft | 472 kts | 250° |
| 2026-05-07 23:34 | 8.43950 | 83.48838 | 35797 ft | 472 kts | 250° |
| 2026-05-07 23:35 | 8.41806 | 83.42574 | 35794 ft | 472 kts | 250° |
| 2026-05-07 23:35 | 8.39656 | 83.36300 | 35798 ft | 472 kts | 250° |
| 2026-05-07 23:36 | 8.37514 | 83.30049 | 35792 ft | 472 kts | 250° |
| 2026-05-07 23:36 | 8.35358 | 83.23759 | 35792 ft | 473 kts | 250° |
| 2026-05-07 23:37 | 8.33210 | 83.17499 | 35795 ft | 473 kts | 250° |
| 2026-05-07 23:37 | 8.31059 | 83.11232 | 35796 ft | 473 kts | 250° |
| 2026-05-07 23:38 | 8.28902 | 83.04954 | 35801 ft | 473 kts | 250° |
| 2026-05-07 23:38 | 8.26747 | 82.98683 | 35797 ft | 473 kts | 250° |
| 2026-05-07 23:39 | 8.24594 | 82.92417 | 35795 ft | 473 kts | 250° |
| 2026-05-07 23:39 | 8.22437 | 82.86151 | 35799 ft | 473 kts | 250° |
| 2026-05-07 23:40 | 8.20260 | 82.79877 | 35795 ft | 474 kts | 250° |
| 2026-05-07 23:40 | 8.18078 | 82.73609 | 35803 ft | 474 kts | 250° |
| 2026-05-07 23:41 | 8.15891 | 82.67324 | 35797 ft | 474 kts | 250° |
| 2026-05-07 23:41 | 8.13710 | 82.61055 | 35800 ft | 474 kts | 250° |
| 2026-05-07 23:42 | 8.11520 | 82.54759 | 35797 ft | 474 kts | 250° |
| 2026-05-07 23:42 | 8.09342 | 82.48504 | 35801 ft | 475 kts | 250° |
| 2026-05-07 23:43 | 8.07158 | 82.42234 | 35803 ft | 475 kts | 250° |
| 2026-05-07 23:43 | 8.04967 | 82.35949 | 35802 ft | 475 kts | 250° |
| 2026-05-07 23:44 | 8.02764 | 82.29632 | 35800 ft | 475 kts | 250° |
| 2026-05-07 23:44 | 8.00571 | 82.23347 | 35803 ft | 476 kts | 250° |
| 2026-05-07 23:45 | 7.98376 | 82.17058 | 35802 ft | 476 kts | 250° |
| 2026-05-07 23:45 | 7.96176 | 82.10759 | 35805 ft | 476 kts | 250° |
| 2026-05-07 23:46 | 7.93964 | 82.04430 | 35798 ft | 477 kts | 250° |
| 2026-05-07 23:46 | 7.91760 | 81.98128 | 35801 ft | 477 kts | 250° |
| 2026-05-07 23:47 | 7.89541 | 81.91787 | 36009 ft | 482 kts | 250° |
| 2026-05-07 23:47 | 7.88426 | 81.88600 | 36359 ft | 480 kts | 250° |
| 2026-05-07 23:47 | 7.87324 | 81.85452 | 36727 ft | 476 kts | 250° |
| 2026-05-07 23:48 | 7.86220 | 81.82299 | 37023 ft | 475 kts | 250° |
| 2026-05-07 23:48 | 7.85123 | 81.79168 | 37235 ft | 476 kts | 250° |
| 2026-05-07 23:48 | 7.84015 | 81.76006 | 37444 ft | 476 kts | 250° |
| 2026-05-07 23:48 | 7.82907 | 81.72845 | 37699 ft | 476 kts | 250° |
| 2026-05-07 23:49 | 7.81818 | 81.69737 | 37812 ft | 478 kts | 250° |
| 2026-05-07 23:49 | 7.80705 | 81.66562 | 37801 ft | 478 kts | 250° |
| 2026-05-07 23:49 | 7.78494 | 81.60260 | 37798 ft | 475 kts | 250° |
| 2026-05-07 23:50 | 7.76298 | 81.54004 | 37800 ft | 472 kts | 250° |
| 2026-05-07 23:50 | 7.74103 | 81.47752 | 37802 ft | 470 kts | 250° |
| 2026-05-07 23:51 | 7.71929 | 81.41566 | 37802 ft | 469 kts | 250° |
| 2026-05-07 23:51 | 7.69745 | 81.35352 | 37810 ft | 469 kts | 250° |
| 2026-05-07 23:52 | 7.67561 | 81.29143 | 37813 ft | 471 kts | 250° |
| 2026-05-07 23:52 | 7.65376 | 81.22931 | 37817 ft | 473 kts | 250° |
| 2026-05-07 23:53 | 7.63159 | 81.16634 | 37820 ft | 475 kts | 250° |
| 2026-05-07 23:53 | 7.60949 | 81.10358 | 37823 ft | 477 kts | 250° |
| 2026-05-07 23:54 | 7.58723 | 81.04040 | 37821 ft | 478 kts | 250° |
| 2026-05-07 23:54 | 7.56495 | 80.97741 | 37822 ft | 478 kts | 249° |
| 2026-05-07 23:55 | 7.54219 | 80.91466 | 37832 ft | 478 kts | 249° |
| 2026-05-07 23:55 | 7.51917 | 80.85162 | 37831 ft | 477 kts | 249° |
| 2026-05-07 23:56 | 7.49639 | 80.78906 | 37836 ft | 475 kts | 249° |
| 2026-05-07 23:56 | 7.47368 | 80.72658 | 37838 ft | 473 kts | 249° |
| 2026-05-07 23:57 | 7.45116 | 80.66463 | 37841 ft | 471 kts | 249° |
| 2026-05-07 23:57 | 7.42874 | 80.60296 | 37844 ft | 470 kts | 249° |
| 2026-05-07 23:58 | 7.40619 | 80.54099 | 37842 ft | 469 kts | 249° |
| 2026-05-07 23:58 | 7.38385 | 80.47963 | 37837 ft | 468 kts | 249° |
| 2026-05-07 23:59 | 7.36137 | 80.41793 | 37837 ft | 468 kts | 249° |
| 2026-05-07 23:59 | 7.33891 | 80.35629 | 37832 ft | 468 kts | 249° |
| 2026-05-08 00:00 | 7.31647 | 80.29474 | 37826 ft | 469 kts | 249° |
| 2026-05-08 00:00 | 7.29400 | 80.23314 | 37823 ft | 470 kts | 249° |
| 2026-05-08 00:01 | 7.27144 | 80.17130 | 37813 ft | 471 kts | 249° |
| 2026-05-08 00:01 | 7.24887 | 80.10949 | 37812 ft | 471 kts | 249° |
| 2026-05-08 00:02 | 7.22621 | 80.04743 | 37797 ft | 472 kts | 249° |
| 2026-05-08 00:02 | 7.20362 | 79.98560 | 37801 ft | 471 kts | 249° |
| 2026-05-08 00:03 | 7.18089 | 79.92341 | 37811 ft | 471 kts | 249° |
| 2026-05-08 00:03 | 7.15807 | 79.86182 | 37794 ft | 471 kts | 247° |
| 2026-05-08 00:04 | 7.13130 | 79.80185 | 37812 ft | 470 kts | 244° |
| 2026-05-08 00:04 | 7.10309 | 79.74224 | 37804 ft | 470 kts | 244° |
| 2026-05-08 00:05 | 7.07522 | 79.68273 | 37804 ft | 469 kts | 244° |
| 2026-05-08 00:05 | 7.04780 | 79.62343 | 37803 ft | 469 kts | 244° |
| 2026-05-08 00:06 | 7.02491 | 79.57376 | 37804 ft | 469 kts | 244° |
| 2026-05-08 00:06 | 6.99746 | 79.51418 | 37803 ft | 469 kts | 244° |
| 2026-05-08 00:07 | 6.97008 | 79.45481 | 37807 ft | 469 kts | 244° |
| 2026-05-08 00:07 | 6.93801 | 79.38532 | 37804 ft | 469 kts | 244° |
| 2026-05-08 00:08 | 6.91506 | 79.33561 | 37801 ft | 470 kts | 244° |
| 2026-05-08 00:08 | 6.88739 | 79.27572 | 37801 ft | 470 kts | 244° |
| 2026-05-08 00:09 | 6.85986 | 79.21612 | 37801 ft | 470 kts | 244° |
| 2026-05-08 00:09 | 6.83236 | 79.15661 | 37803 ft | 470 kts | 244° |
| 2026-05-08 00:10 | 6.80462 | 79.09660 | 37803 ft | 471 kts | 244° |
| 2026-05-08 00:10 | 6.77698 | 79.03711 | 37804 ft | 471 kts | 244° |
| 2026-05-08 00:11 | 6.74764 | 78.97827 | 37806 ft | 471 kts | 242° |
| 2026-05-08 00:11 | 6.71775 | 78.91980 | 37804 ft | 471 kts | 242° |
| 2026-05-08 00:12 | 6.68800 | 78.86125 | 37806 ft | 471 kts | 243° |
| 2026-05-08 00:12 | 6.65835 | 78.80249 | 37801 ft | 471 kts | 243° |
| 2026-05-08 00:13 | 6.62862 | 78.74344 | 37802 ft | 471 kts | 243° |
| 2026-05-08 00:13 | 6.59904 | 78.68471 | 37803 ft | 471 kts | 243° |
| 2026-05-08 00:14 | 6.56933 | 78.62575 | 37802 ft | 472 kts | 243° |
| 2026-05-08 00:14 | 6.53966 | 78.56690 | 37803 ft | 472 kts | 243° |
| 2026-05-08 00:15 | 6.51009 | 78.50827 | 37805 ft | 472 kts | 243° |
| 2026-05-08 00:15 | 6.48037 | 78.44937 | 37804 ft | 473 kts | 243° |
| 2026-05-08 00:16 | 6.45043 | 78.39007 | 37800 ft | 473 kts | 243° |
| 2026-05-08 00:16 | 6.42071 | 78.33120 | 37805 ft | 474 kts | 243° |
| 2026-05-08 00:17 | 6.39080 | 78.27198 | 37805 ft | 474 kts | 243° |
| 2026-05-08 00:17 | 6.36096 | 78.21292 | 37800 ft | 475 kts | 243° |
| 2026-05-08 00:18 | 6.33110 | 78.15385 | 37802 ft | 476 kts | 243° |
| 2026-05-08 00:18 | 6.30113 | 78.09458 | 37799 ft | 476 kts | 243° |
| 2026-05-08 00:19 | 6.27103 | 78.03505 | 37804 ft | 477 kts | 243° |
| 2026-05-08 00:19 | 6.24109 | 77.97588 | 37802 ft | 477 kts | 243° |
| 2026-05-08 00:20 | 6.21092 | 77.91627 | 37801 ft | 478 kts | 243° |
| 2026-05-08 00:20 | 6.18086 | 77.85690 | 37798 ft | 478 kts | 243° |
| 2026-05-08 00:21 | 6.15054 | 77.79703 | 37800 ft | 478 kts | 243° |
| 2026-05-08 00:21 | 6.12039 | 77.73750 | 37800 ft | 478 kts | 242° |
| 2026-05-08 00:22 | 6.09020 | 77.67793 | 37793 ft | 478 kts | 242° |
| 2026-05-08 00:22 | 6.06011 | 77.61857 | 37797 ft | 478 kts | 242° |
| 2026-05-08 00:23 | 6.03003 | 77.55924 | 37793 ft | 477 kts | 242° |
| 2026-05-08 00:23 | 5.99988 | 77.49980 | 37802 ft | 477 kts | 242° |
| 2026-05-08 00:24 | 5.97146 | 77.43932 | 37799 ft | 477 kts | 245° |
| 2026-05-08 00:24 | 5.94470 | 77.37860 | 37795 ft | 477 kts | 245° |
| 2026-05-08 00:25 | 5.91771 | 77.31768 | 37798 ft | 476 kts | 245° |
| 2026-05-08 00:25 | 5.89057 | 77.25718 | 37798 ft | 476 kts | 245° |
| 2026-05-08 00:26 | 5.86337 | 77.19688 | 37795 ft | 476 kts | 245° |
| 2026-05-08 00:26 | 5.83599 | 77.13624 | 37794 ft | 476 kts | 245° |
| 2026-05-08 00:27 | 5.80868 | 77.07576 | 37798 ft | 476 kts | 245° |
| 2026-05-08 00:27 | 5.78143 | 77.01541 | 37802 ft | 476 kts | 245° |
| 2026-05-08 00:28 | 5.75395 | 76.95456 | 37799 ft | 476 kts | 245° |
| 2026-05-08 00:28 | 5.72666 | 76.89414 | 37800 ft | 476 kts | 245° |
| 2026-05-08 00:29 | 5.69931 | 76.83362 | 37796 ft | 477 kts | 245° |
| 2026-05-08 00:29 | 5.67193 | 76.77304 | 37794 ft | 477 kts | 245° |
| 2026-05-08 00:30 | 5.64441 | 76.71219 | 37796 ft | 477 kts | 245° |
| 2026-05-08 00:30 | 5.61701 | 76.65162 | 37800 ft | 477 kts | 245° |
| 2026-05-08 00:31 | 5.58957 | 76.59097 | 37801 ft | 478 kts | 245° |
| 2026-05-08 00:31 | 5.56220 | 76.53049 | 37801 ft | 478 kts | 245° |
| 2026-05-08 00:32 | 5.53470 | 76.46977 | 37799 ft | 478 kts | 245° |
| 2026-05-08 00:32 | 5.50708 | 76.40877 | 37801 ft | 478 kts | 245° |
| 2026-05-08 00:33 | 5.47965 | 76.34823 | 37801 ft | 477 kts | 245° |
| 2026-05-08 00:33 | 5.45224 | 76.28775 | 37800 ft | 477 kts | 245° |
| 2026-05-08 00:34 | 5.42469 | 76.22696 | 37797 ft | 477 kts | 245° |
| 2026-05-08 00:34 | 5.39729 | 76.16654 | 37796 ft | 476 kts | 245° |
| 2026-05-08 00:35 | 5.36979 | 76.10588 | 37801 ft | 476 kts | 245° |
| 2026-05-08 00:35 | 5.34212 | 76.04568 | 37791 ft | 476 kts | 240° |
| 2026-05-08 00:36 | 5.32290 | 76.01872 | 37813 ft | 472 kts | 226° |
| 2026-05-08 00:36 | 5.30032 | 75.99507 | 37812 ft | 472 kts | 224° |
| 2026-05-08 00:36 | 5.25405 | 75.94864 | 37801 ft | 473 kts | 224° |
| 2026-05-08 00:37 | 5.20770 | 75.90150 | 37808 ft | 473 kts | 225° |
| 2026-05-08 00:38 | 5.13902 | 75.83023 | 37808 ft | 474 kts | 225° |
| 2026-05-08 00:38 | 5.09317 | 75.78250 | 37807 ft | 475 kts | 225° |
| 2026-05-08 00:39 | 5.04734 | 75.73487 | 37807 ft | 476 kts | 225° |
| 2026-05-08 00:39 | 5.00142 | 75.68716 | 37804 ft | 477 kts | 225° |
| 2026-05-08 00:40 | 4.95609 | 75.63833 | 37785 ft | 479 kts | 235° |
| 2026-05-08 00:40 | 4.92235 | 75.58056 | 37799 ft | 479 kts | 240° |
| 2026-05-08 00:41 | 4.89020 | 75.52217 | 37799 ft | 480 kts | 240° |
| 2026-05-08 00:41 | 4.85749 | 75.46409 | 37809 ft | 480 kts | 240° |
| 2026-05-08 00:42 | 4.82405 | 75.40562 | 37808 ft | 481 kts | 239° |
| 2026-05-08 00:42 | 4.79084 | 75.34769 | 37803 ft | 481 kts | 239° |
| 2026-05-08 00:43 | 4.75744 | 75.28936 | 37810 ft | 481 kts | 239° |
| 2026-05-08 00:43 | 4.72438 | 75.23160 | 37816 ft | 480 kts | 239° |
| 2026-05-08 00:44 | 4.69103 | 75.17338 | 37802 ft | 480 kts | 239° |
| 2026-05-08 00:44 | 4.65785 | 75.11549 | 37807 ft | 480 kts | 239° |
| 2026-05-08 00:45 | 4.62454 | 75.05738 | 37810 ft | 480 kts | 239° |
| 2026-05-08 00:45 | 4.60797 | 75.02847 | 37360 ft | 486 kts | 239° |
| 2026-05-08 00:45 | 4.59098 | 74.99883 | 36766 ft | 486 kts | 239° |
| 2026-05-08 00:45 | 4.57411 | 74.96940 | 36090 ft | 485 kts | 239° |
| 2026-05-08 00:46 | 4.55750 | 74.94042 | 35400 ft | 485 kts | 239° |
| 2026-05-08 00:46 | 4.54060 | 74.91095 | 34597 ft | 488 kts | 239° |
| 2026-05-08 00:46 | 4.52374 | 74.88154 | 33776 ft | 491 kts | 239° |
| 2026-05-08 00:46 | 4.50658 | 74.85162 | 32803 ft | 494 kts | 239° |
| 2026-05-08 00:47 | 4.48938 | 74.82163 | 31975 ft | 494 kts | 239° |
| 2026-05-08 00:47 | 4.47251 | 74.79222 | 31327 ft | 490 kts | 239° |
| 2026-05-08 00:47 | 4.45546 | 74.76248 | 30680 ft | 486 kts | 239° |
| 2026-05-08 00:47 | 4.43860 | 74.73308 | 30022 ft | 483 kts | 239° |
| 2026-05-08 00:48 | 4.42211 | 74.70434 | 29296 ft | 480 kts | 239° |
| 2026-05-08 00:48 | 4.40551 | 74.67541 | 28604 ft | 475 kts | 239° |
| 2026-05-08 00:48 | 4.38907 | 74.64678 | 27930 ft | 469 kts | 239° |
| 2026-05-08 00:48 | 4.37285 | 74.61852 | 27277 ft | 464 kts | 239° |
| 2026-05-08 00:49 | 4.35699 | 74.59089 | 26618 ft | 460 kts | 239° |
| 2026-05-08 00:49 | 4.34101 | 74.56305 | 25943 ft | 456 kts | 240° |
| 2026-05-08 00:49 | 4.32547 | 74.53597 | 25299 ft | 452 kts | 240° |
| 2026-05-08 00:49 | 4.30978 | 74.50865 | 24638 ft | 448 kts | 240° |
| 2026-05-08 00:50 | 4.29425 | 74.48161 | 23978 ft | 444 kts | 240° |
| 2026-05-08 00:50 | 4.27901 | 74.45509 | 23221 ft | 443 kts | 241° |
| 2026-05-08 00:50 | 4.26361 | 74.42831 | 22477 ft | 439 kts | 241° |
| 2026-05-08 00:50 | 4.24848 | 74.40199 | 21815 ft | 432 kts | 241° |
| 2026-05-08 00:51 | 4.23354 | 74.37600 | 21188 ft | 426 kts | 241° |
| 2026-05-08 00:51 | 4.21899 | 74.35068 | 20577 ft | 420 kts | 241° |
| 2026-05-08 00:51 | 4.20448 | 74.32545 | 19967 ft | 415 kts | 241° |
| 2026-05-08 00:51 | 4.19020 | 74.30059 | 19343 ft | 410 kts | 242° |
| 2026-05-08 00:52 | 4.18072 | 74.28410 | 18936 ft | 408 kts | 242° |
| 2026-05-08 00:52 | 4.16661 | 74.25953 | 18323 ft | 404 kts | 241° |
| 2026-05-08 00:52 | 4.14807 | 74.22728 | 17446 ft | 398 kts | 242° |
| 2026-05-08 00:52 | 4.13872 | 74.21101 | 17020 ft | 395 kts | 241° |
| 2026-05-08 00:53 | 4.12522 | 74.18752 | 16419 ft | 389 kts | 242° |
| 2026-05-08 00:53 | 4.11174 | 74.16409 | 15821 ft | 384 kts | 242° |
| 2026-05-08 00:53 | 4.09861 | 74.14125 | 15249 ft | 380 kts | 242° |
| 2026-05-08 00:53 | 4.08551 | 74.11846 | 14661 ft | 372 kts | 242° |
| 2026-05-08 00:54 | 4.07276 | 74.09633 | 14084 ft | 361 kts | 242° |
| 2026-05-08 00:54 | 4.06031 | 74.07468 | 13494 ft | 351 kts | 242° |
| 2026-05-08 00:54 | 4.04835 | 74.05390 | 12899 ft | 344 kts | 242° |
| 2026-05-08 00:54 | 4.03645 | 74.03320 | 12358 ft | 341 kts | 242° |
| 2026-05-08 00:55 | 4.02464 | 74.01263 | 11877 ft | 337 kts | 242° |
| 2026-05-08 00:55 | 4.01305 | 73.99249 | 11409 ft | 333 kts | 242° |
| 2026-05-08 00:55 | 4.00162 | 73.97261 | 10905 ft | 331 kts | 242° |
| 2026-05-08 00:55 | 3.99012 | 73.95261 | 10527 ft | 325 kts | 242° |
| 2026-05-08 00:56 | 3.97904 | 73.93337 | 10372 ft | 312 kts | 242° |
| 2026-05-08 00:56 | 3.96836 | 73.91483 | 10230 ft | 299 kts | 242° |
| 2026-05-08 00:56 | 3.95827 | 73.89730 | 10103 ft | 288 kts | 242° |
| 2026-05-08 00:56 | 3.95023 | 73.87938 | 9964 ft | 274 kts | 259° |
| 2026-05-08 00:57 | 3.94829 | 73.86087 | 9667 ft | 270 kts | 270° |
| 2026-05-08 00:57 | 3.94846 | 73.84218 | 9302 ft | 268 kts | 272° |
| 2026-05-08 00:57 | 3.94882 | 73.82342 | 8931 ft | 268 kts | 272° |
| 2026-05-08 00:57 | 3.94902 | 73.80476 | 8568 ft | 267 kts | 271° |
| 2026-05-08 00:58 | 3.94911 | 73.78634 | 8205 ft | 266 kts | 271° |
| 2026-05-08 00:58 | 3.94914 | 73.76773 | 7847 ft | 266 kts | 271° |
| 2026-05-08 00:58 | 3.94916 | 73.74918 | 7488 ft | 265 kts | 271° |
| 2026-05-08 00:58 | 3.94916 | 73.73091 | 7139 ft | 265 kts | 271° |
| 2026-05-08 00:59 | 3.94917 | 73.71239 | 6780 ft | 264 kts | 271° |
| 2026-05-08 00:59 | 3.94917 | 73.69408 | 6417 ft | 264 kts | 271° |
| 2026-05-08 00:59 | 3.94917 | 73.67555 | 6055 ft | 263 kts | 271° |
| 2026-05-08 00:59 | 3.94917 | 73.65740 | 5688 ft | 263 kts | 271° |
| 2026-05-08 01:00 | 3.94916 | 73.63909 | 5392 ft | 259 kts | 271° |
| 2026-05-08 01:00 | 3.94912 | 73.62131 | 5119 ft | 255 kts | 271° |
| 2026-05-08 01:00 | 3.94909 | 73.60362 | 4878 ft | 251 kts | 271° |
| 2026-05-08 01:00 | 3.94906 | 73.58626 | 4641 ft | 246 kts | 272° |
| 2026-05-08 01:01 | 3.94903 | 73.56923 | 4399 ft | 242 kts | 271° |
| 2026-05-08 01:01 | 3.95159 | 73.55319 | 4205 ft | 231 kts | 299° |
| 2026-05-08 01:01 | 3.96305 | 73.54227 | 4101 ft | 232 kts | 332° |
| 2026-05-08 01:01 | 3.97824 | 73.53692 | 3841 ft | 235 kts | 342° |
| 2026-05-08 01:02 | 3.99431 | 73.53371 | 3567 ft | 234 kts | 349° |
| 2026-05-08 01:02 | 4.01036 | 73.53176 | 3264 ft | 233 kts | 353° |
| 2026-05-08 01:02 | 4.02653 | 73.53113 | 2970 ft | 228 kts | 356° |
| 2026-05-08 01:02 | 4.04200 | 73.53111 | 2676 ft | 222 kts | 357° |
| 2026-05-08 01:03 | 4.05718 | 73.53114 | 2423 ft | 213 kts | 357° |
| 2026-05-08 01:03 | 4.07180 | 73.53114 | 2134 ft | 205 kts | 356° |
| 2026-05-08 01:03 | 4.08560 | 73.53113 | 1881 ft | 194 kts | 356° |
| 2026-05-08 01:03 | 4.09858 | 73.53112 | 1640 ft | 176 kts | 355° |
| 2026-05-08 01:04 | 4.11011 | 73.53112 | 1413 ft | 157 kts | 355° |
| 2026-05-08 01:04 | 4.12067 | 73.53109 | 1235 ft | 143 kts | 355° |
| 2026-05-08 01:04 | 4.13002 | 73.53108 | 1045 ft | 132 kts | 355° |
| 2026-05-08 01:04 | 4.13924 | 73.53107 | 916 ft | 132 kts | 355° |
| 2026-05-08 01:05 | 4.14851 | 73.53105 | 727 ft | 129 kts | 356° |
| 2026-05-08 01:05 | 4.15780 | 73.53104 | 587 ft | 139 kts | 355° |
| 2026-05-08 01:05 | 4.16741 | 73.53104 | 371 ft | 133 kts | 357° |
| 2026-05-08 01:05 | 4.17627 | 73.53094 | 318 ft | 125 kts | 359° |
| 2026-05-08 01:06 | 4.18505 | 73.53110 | 69 ft | 123 kts | 358° |
| 2026-05-08 01:06 | 4.19273 | 73.53094 | 12 ft | 87 kts | 360° |
| 2026-05-08 01:06 | 4.19703 | 73.53089 | 11 ft | 52 kts | 360° |
| 2026-05-08 01:06 | 4.20042 | 73.53096 | 11 ft | 46 kts | 1° |
| 2026-05-08 01:07 | 4.20248 | 73.53096 | 11 ft | 16 kts | 359° |
| 2026-05-08 01:07 | 4.20352 | 73.53072 | 11 ft | 16 kts | 306° |
| 2026-05-08 01:07 | 4.20365 | 73.52972 | 11 ft | 13 kts | 268° |
| 2026-05-08 01:07 | 4.20337 | 73.52896 | 11 ft | 12 kts | 200° |
| 2026-05-08 01:08 | 4.20253 | 73.52897 | 11 ft | 12 kts | 179° |
| 2026-05-08 01:08 | 4.20169 | 73.52898 | 11 ft | 12 kts | 179° |
| 2026-05-08 01:08 | 4.20089 | 73.52899 | 11 ft | 11 kts | 179° |
| 2026-05-08 01:08 | 4.20001 | 73.52901 | 11 ft | 14 kts | 179° |
| 2026-05-08 01:09 | 4.19891 | 73.52904 | 11 ft | 17 kts | 179° |
| 2026-05-08 01:09 | 4.19772 | 73.52907 | 11 ft | 17 kts | 179° |
| 2026-05-08 01:09 | 4.19658 | 73.52909 | 11 ft | 16 kts | 180° |
| 2026-05-08 01:09 | 4.19539 | 73.52909 | 11 ft | 18 kts | 180° |
| 2026-05-08 01:10 | 4.19408 | 73.52911 | 11 ft | 20 kts | 179° |
| 2026-05-08 01:10 | 4.19262 | 73.52914 | 11 ft | 22 kts | 179° |
| 2026-05-08 01:10 | 4.19116 | 73.52917 | 14 ft | 18 kts | 179° |
| 2026-05-08 01:10 | 4.18997 | 73.52918 | -1 ft | 15 kts | 180° |
| 2026-05-08 01:11 | 4.18925 | 73.52861 | 13 ft | 14 kts | 254° |
| 2026-05-08 01:11 | 4.18921 | 73.52821 | 11 ft | 4 kts | 270° |
| 2026-05-08 01:11 | 4.18921 | 73.52794 | 11 ft | 4 kts | 269° |
| 2026-05-08 01:11 | 4.18921 | 73.52791 | 11 ft | 0 kts | 269° |